Time;durP1;ratioP1;P1;durP2;ratioP2;P2;SDS_P1;SDS_P2;PMS_P1;PMS_P2;Temp;Humidity;BMP_temperature;BMP_pressure;BME280_temperature;BME280_humidity;BME280_pressure;Samples;Min_cycle;Max_cycle;Signal;HPM_P1;HPM_P2
2022/06/12 00:00:07;;;;;;;15.40;6.00;;;;;;;15.12;70.88;102265.06;5029162;28;20049;-74
2022/06/12 00:02:33;;;;;;;17.67;6.13;;;;;;;15.15;70.96;102258.97;5028411;28;20087;-74
2022/06/12 00:04:58;;;;;;;14.90;5.88;;;;;;;15.10;71.38;102257.13;5029156;28;20025;-74
2022/06/12 00:07:24;;;;;;;12.88;6.18;;;;;;;15.11;71.33;102253.66;5029753;28;20017;-74
2022/06/12 00:09:49;;;;;;;14.35;6.63;;;;;;;15.04;71.65;102256.94;5029933;28;20545;-74
2022/06/12 00:12:14;;;;;;;14.57;6.22;;;;;;;14.98;71.84;102254.16;5032707;28;20552;-74
2022/06/12 00:14:40;;;;;;;15.93;6.20;;;;;;;14.96;71.73;102253.22;5033064;28;20040;-74
2022/06/12 00:17:05;;;;;;;13.07;5.95;;;;;;;14.89;71.65;102260.03;5032099;28;20025;-74
2022/06/12 00:19:31;;;;;;;12.98;5.82;;;;;;;14.92;72.22;102254.00;5032676;28;20028;-74
2022/06/12 00:21:57;;;;;;;13.32;6.07;;;;;;;14.89;72.34;102253.91;5033646;28;20025;-74
2022/06/12 00:24:24;;;;;;;12.63;5.72;;;;;;;14.85;72.00;102246.78;5032751;28;20076;-74
2022/06/12 00:26:53;;;;;;;14.23;6.28;;;;;;;14.83;72.31;102253.72;5033432;28;20390;-73
2022/06/12 00:29:20;;;;;;;;;;;;;;;15.08;70.04;102253.56;5034456;28;20025;-74
2022/06/12 00:31:49;;;;;;;15.20;6.15;;;;;;;14.94;71.85;102254.91;5033450;28;19952;-73
2022/06/12 00:34:18;;;;;;;13.05;6.28;;;;;;;14.86;71.18;102252.09;5033433;28;20024;-74
2022/06/12 00:36:43;;;;;;;15.18;6.70;;;;;;;14.83;71.81;102249.38;5033334;28;20400;-74
2022/06/12 00:39:09;;;;;;;16.40;6.72;;;;;;;14.73;72.02;102250.84;5015392;28;20029;-74
2022/06/12 00:41:36;;;;;;;15.35;6.28;;;;;;;14.66;71.56;102253.25;5032775;28;20039;-73
2022/06/12 00:44:03;;;;;;;16.75;6.43;;;;;;;14.68;71.59;102249.81;5033181;28;20030;-73
2022/06/12 00:46:40;;;;;;;14.18;6.30;;;;;;;14.65;71.19;102254.97;5033219;28;20029;-74
2022/06/12 00:49:44;;;;;;;15.77;6.00;;;;;;;14.67;70.74;102252.38;5033260;28;20078;-74
2022/06/12 00:52:32;;;;;;;15.10;6.30;;;;;;;14.62;70.44;102257.50;5031040;28;20044;-74
2022/06/12 00:55:05;;;;;;;15.90;6.63;;;;;;;14.53;71.16;102258.09;5028788;28;20033;-74
2022/06/12 00:57:30;;;;;;;13.88;7.10;;;;;;;14.46;70.71;102258.75;5019718;28;20034;-74
2022/06/12 01:00:00;;;;;;;14.10;7.10;;;;;;;14.42;71.24;102254.25;5033056;28;20025;-74
2022/06/12 01:02:32;;;;;;;16.88;7.40;;;;;;;14.42;72.06;102254.25;5030899;28;20029;-74
2022/06/12 01:07:46;;;;;;;18.02;7.30;;;;;;;14.39;73.16;102254.16;5032166;28;20148;-68
2022/06/12 01:10:15;;;;;;;13.15;6.35;;;;;;;14.37;73.40;102243.63;5022754;28;20029;-68
2022/06/12 01:12:48;;;;;;;16.90;7.15;;;;;;;14.39;73.06;102252.41;5031758;28;20050;-68
2022/06/12 01:15:23;;;;;;;16.73;7.28;;;;;;;14.38;73.27;102250.66;5014124;28;20084;-68
2022/06/12 01:17:50;;;;;;;12.95;6.25;;;;;;;14.34;73.54;102251.41;5032033;28;20029;-68
2022/06/12 01:20:21;;;;;;;15.52;7.28;;;;;;;14.30;73.48;102260.00;5031625;28;20401;-68
2022/06/12 01:23:08;;;;;;;14.90;7.80;;;;;;;14.21;72.96;102263.22;5012678;28;20400;-68
2022/06/12 01:25:58;;;;;;;16.85;8.25;;;;;;;14.17;72.89;102260.47;5031243;28;20124;-68
2022/06/12 01:29:00;;;;;;;13.23;7.13;;;;;;;14.24;72.93;102258.06;5031214;28;20039;-68
2022/06/12 01:31:34;;;;;;;16.98;7.82;;;;;;;14.20;73.49;102260.56;5026932;28;20036;-68
2022/06/12 01:34:18;;;;;;;14.07;8.02;;;;;;;14.15;73.46;102263.03;5030655;28;20116;-68
2022/06/12 01:37:18;;;;;;;15.20;7.38;;;;;;;14.18;73.08;102251.75;5031782;28;20055;-73
2022/06/12 01:40:18;;;;;;;17.77;7.82;;;;;;;14.21;72.65;102258.00;5032283;28;20025;-73
2022/06/12 01:43:03;;;;;;;21.17;8.70;;;;;;;14.13;72.91;102248.09;5023775;28;20091;-73
2022/06/12 01:45:43;;;;;;;18.45;8.18;;;;;;;14.05;73.51;102240.88;5031113;28;20455;-73
2022/06/12 01:48:23;;;;;;;21.30;9.30;;;;;;;14.02;73.27;102239.88;5030924;28;20065;-73
2022/06/12 01:50:51;;;;;;;19.48;8.40;;;;;;;13.97;73.38;102237.13;5023338;28;20477;-73
2022/06/12 01:53:38;;;;;;;22.13;7.88;;;;;;;13.96;73.29;102239.69;5031153;28;20034;-73
2022/06/12 01:56:13;;;;;;;17.40;8.18;;;;;;;13.94;72.78;102242.28;5031329;28;20029;-73
2022/06/12 01:58:59;;;;;;;15.52;8.40;;;;;;;13.94;72.07;102247.50;5031782;28;20022;-73
2022/06/12 02:01:31;;;;;;;18.15;8.05;;;;;;;13.85;72.82;102245.47;5030127;28;20025;-73
2022/06/12 02:04:15;;;;;;;19.90;7.95;;;;;;;13.85;72.31;102239.38;5030286;28;20051;-73
2022/06/12 02:07:03;;;;;;;14.98;7.63;;;;;;;13.80;72.33;102243.53;5011877;28;20512;-73
2022/06/12 02:09:35;;;;;;;14.07;7.53;;;;;;;13.73;73.31;102240.72;5027751;28;20222;-73
2022/06/12 02:15:07;;;;;;;14.70;7.40;;;;;;;13.71;73.15;102246.75;5030379;28;20606;-73
2022/06/12 02:17:38;;;;;;;17.17;7.97;;;;;;;13.66;72.50;102249.22;5030685;28;20037;-73
2022/06/12 02:20:08;;;;;;;16.27;7.20;;;;;;;13.67;73.00;102245.78;5030899;28;20021;-73
2022/06/12 02:22:34;;;;;;;16.05;8.10;;;;;;;13.68;72.83;102252.78;5030691;28;20033;-73
2022/06/12 02:25:08;;;;;;;18.80;7.90;;;;;;;13.62;72.97;102257.81;5031417;28;20030;-73
2022/06/12 02:27:40;;;;;;;20.55;9.32;;;;;;;13.59;72.87;102255.09;5013454;28;20017;-73
2022/06/12 02:30:46;;;;;;;18.52;8.45;;;;;;;13.67;73.93;102255.34;5031173;28;20024;-73
2022/06/12 02:33:18;;;;;;;18.20;7.78;;;;;;;13.64;74.24;102248.28;5031233;28;20212;-73
2022/06/12 02:35:59;;;;;;;20.17;7.50;;;;;;;13.68;73.85;102247.53;5031081;28;20029;-73
2022/06/12 02:38:35;;;;;;;18.30;7.72;;;;;;;13.66;73.98;102237.88;5021134;28;20022;-73
2022/06/12 02:41:05;;;;;;;17.70;7.72;;;;;;;13.63;73.99;102238.66;5030842;28;20033;-73
2022/06/12 02:43:33;;;;;;;16.92;7.45;;;;;;;13.61;74.09;102239.44;5013413;28;20443;-73
2022/06/12 02:46:05;;;;;;;20.95;8.15;;;;;;;13.64;73.84;102234.28;5031001;28;20013;-73
2022/06/12 02:48:32;;;;;;;19.08;7.68;;;;;;;13.65;73.58;102233.47;5031055;28;20021;-73
2022/06/12 02:51:08;;;;;;;20.40;8.60;;;;;;;13.62;73.39;102230.75;5029159;28;20460;-73
2022/06/12 02:54:03;;;;;;;20.08;8.02;;;;;;;13.64;73.03;102229.94;5029562;28;20080;-73
2022/06/12 02:56:52;;;;;;;14.77;8.13;;;;;;;13.63;73.04;102232.50;5019774;28;20068;-73
2022/06/12 02:59:32;;;;;;;19.20;7.80;;;;;;;13.60;72.86;102232.41;5029340;28;20029;-73
2022/06/12 03:02:11;;;;;;;19.73;7.90;;;;;;;13.59;72.93;102223.66;5030239;28;20037;-73
2022/06/12 03:04:45;;;;;;;17.70;7.60;;;;;;;13.56;73.33;102220.94;5028510;28;20537;-73
2022/06/12 03:07:10;;;;;;;15.60;7.05;;;;;;;13.59;74.05;102220.16;5028967;28;20512;-73
2022/06/12 03:09:36;;;;;;;19.73;7.45;;;;;;;13.61;73.66;102235.06;5029979;28;20045;-73
2022/06/12 03:12:03;;;;;;;16.35;7.15;;;;;;;13.62;73.34;102234.25;5029778;28;20120;-73
2022/06/12 03:14:29;;;;;;;18.15;7.68;;;;;;;13.60;73.12;102233.31;5029963;28;21261;-73
2022/06/12 03:16:54;;;;;;;19.70;8.20;;;;;;;13.59;72.69;102233.25;5029830;28;20453;-73
2022/06/12 03:19:28;;;;;;;20.02;7.38;;;;;;;13.56;72.82;102236.66;5029570;28;20037;-73
2022/06/12 03:22:02;;;;;;;15.95;6.95;;;;;;;13.54;72.91;102233.09;5026818;28;20052;-73
2022/06/12 03:24:40;;;;;;;18.08;7.88;;;;;;;13.51;72.71;102233.00;5029240;28;20116;-73
2022/06/12 03:27:12;;;;;;;17.40;7.20;;;;;;;13.48;72.68;102232.88;5029966;28;20557;-73
2022/06/12 03:29:50;;;;;;;20.35;7.80;;;;;;;13.46;73.16;102239.81;5020633;28;20484;-73
2022/06/12 03:32:24;;;;;;;19.27;7.22;;;;;;;13.44;73.18;102233.63;5029110;28;20116;-73
2022/06/12 03:34:55;;;;;;;21.58;7.78;;;;;;;13.44;73.47;102236.22;5029875;28;20036;-73
2022/06/12 03:37:26;;;;;;;20.27;7.68;;;;;;;13.44;73.44;102241.47;5026728;28;20488;-73
2022/06/12 03:40:03;;;;;;;18.95;7.55;;;;;;;13.45;73.55;102238.03;5029653;28;20116;-73
2022/06/12 03:42:56;;;;;;;20.35;7.75;;;;;;;13.47;73.20;102242.47;5029231;28;20064;-73
2022/06/12 03:45:33;;;;;;;19.25;7.63;;;;;;;13.42;73.51;102243.16;5034483;28;20029;-73
2022/06/12 03:48:21;;;;;;;17.98;7.32;;;;;;;13.43;73.54;102244.94;5036860;28;20056;-73
2022/06/12 03:50:54;;;;;;;18.55;8.18;;;;;;;13.44;74.40;102244.09;5036017;28;20024;-73
2022/06/12 03:53:46;;;;;;;22.42;8.15;;;;;;;13.50;74.85;102239.09;5033723;28;20120;-73
2022/06/12 03:59:16;;;;;;;21.60;8.20;;;;;;;13.62;75.01;102242.09;5033291;28;20048;-73
2022/06/12 04:01:45;;;;;;;23.58;7.65;;;;;;;13.64;75.67;102247.38;5018870;28;20018;-73
2022/06/12 04:04:13;;;;;;;24.75;8.77;;;;;;;13.65;74.61;102243.94;5035689;28;20107;-73
2022/06/12 04:06:40;;;;;;;20.48;8.25;;;;;;;13.65;74.70;102242.19;5036053;28;20029;-73
2022/06/12 04:09:16;;;;;;;21.63;8.88;;;;;;;13.66;74.91;102244.00;5036052;28;20456;-73
2022/06/12 04:11:48;;;;;;;17.30;7.95;;;;;;;13.68;74.76;102238.78;5033558;28;20030;-73
2022/06/12 04:14:16;;;;;;;20.73;9.13;;;;;;;13.71;74.63;102242.41;5036194;28;20045;-73
2022/06/12 04:16:49;;;;;;;26.35;9.40;;;;;;;13.77;74.08;102246.06;5034979;28;20065;-73
2022/06/12 04:19:22;;;;;;;23.08;9.45;;;;;;;13.70;74.03;102243.25;5036593;28;20044;-73
2022/06/12 04:21:59;;;;;;;20.85;8.68;;;;;;;13.74;73.77;102250.38;5034708;28;20079;-73
2022/06/12 04:24:39;;;;;;;19.98;8.55;;;;;;;13.75;73.55;102243.41;5036441;28;20080;-73
2022/06/12 04:27:13;;;;;;;23.48;8.93;;;;;;;13.78;73.43;102240.88;5036347;28;20112;-73
2022/06/12 04:29:49;;;;;;;23.20;9.20;;;;;;;13.79;73.55;102247.00;5036517;28;20101;-73
2022/06/12 04:32:15;;;;;;;22.33;9.63;;;;;;;13.78;73.29;102247.84;5036451;28;20021;-73
2022/06/12 04:34:42;;;;;;;22.02;8.43;;;;;;;13.83;73.46;102256.75;5036444;28;20392;-73
2022/06/12 04:37:19;;;;;;;22.75;8.60;;;;;;;13.80;73.30;102254.03;5036315;28;20053;-73
2022/06/12 04:39:46;;;;;;;19.52;8.93;;;;;;;13.80;73.80;102254.94;5035669;28;20064;-73
2022/06/12 04:42:13;;;;;;;20.60;8.90;;;;;;;13.84;73.28;102263.78;5036123;28;20024;-73
2022/06/12 04:44:38;;;;;;;20.80;8.85;;;;;;;13.84;73.54;102261.16;5018316;28;20013;-73
2022/06/12 04:47:05;;;;;;;20.33;9.25;;;;;;;13.88;72.85;102260.41;5036269;28;20378;-72
2022/06/12 04:49:34;;;;;;;25.63;9.68;;;;;;;13.91;73.13;102261.41;5036207;28;20105;-73
2022/06/12 04:52:02;;;;;;;26.15;9.00;;;;;;;13.94;72.88;102259.72;5035470;28;20029;-73
2022/06/12 04:54:30;;;;;;;22.40;8.93;;;;;;;13.92;73.06;102257.06;5036200;28;20025;-73
2022/06/12 04:56:56;;;;;;;21.08;8.23;;;;;;;13.95;72.90;102258.88;5031555;28;20034;-73
2022/06/12 04:59:22;;;;;;;21.48;8.73;;;;;;;13.96;72.84;102263.28;5032268;28;20033;-73
2022/06/12 05:01:48;;;;;;;19.50;8.68;;;;;;;13.99;72.22;102258.13;5011760;28;20029;-73
2022/06/12 05:04:15;;;;;;;23.35;8.43;;;;;;;14.01;72.11;102254.72;5030292;28;20550;-73
2022/06/12 05:06:42;;;;;;;23.48;8.48;;;;;;;14.02;72.55;102253.91;5032986;28;20091;-72
2022/06/12 05:09:08;;;;;;;26.65;9.02;;;;;;;14.03;72.62;102245.19;5014393;28;20014;-73
2022/06/12 05:11:34;;;;;;;23.85;8.43;;;;;;;14.07;72.81;102241.81;5032935;28;20481;-73
2022/06/12 05:13:59;;;;;;;23.88;8.98;;;;;;;14.11;72.88;102244.53;5031914;28;20104;-73
2022/06/12 05:16:42;;;;;;;22.92;8.38;;;;;;;14.15;72.76;102257.81;5032724;28;20498;-73
2022/06/12 05:19:13;;;;;;;23.27;8.80;;;;;;;14.17;72.98;102256.09;5014653;28;20120;-72
2022/06/12 05:21:40;;;;;;;23.48;8.30;;;;;;;14.20;73.13;102255.31;5014059;28;20050;-73
2022/06/12 05:24:06;;;;;;;23.80;8.60;;;;;;;14.22;73.51;102253.63;5032532;28;20096;-73
2022/06/12 05:26:33;;;;;;;21.92;8.75;;;;;;;14.26;73.56;102248.53;5032661;28;20060;-72
2022/06/12 05:29:04;;;;;;;19.90;8.75;;;;;;;14.29;73.28;102252.97;5029844;28;20100;-73
2022/06/12 05:31:29;;;;;;;21.80;8.27;;;;;;;14.33;73.42;102246.97;5032550;28;20021;-73
2022/06/12 05:33:54;;;;;;;26.40;8.70;;;;;;;14.35;73.56;102250.56;5026990;28;20083;-73
2022/06/12 05:36:21;;;;;;;31.30;9.88;;;;;;;14.39;73.75;102248.91;5032223;28;20120;-73
2022/06/12 05:38:47;;;;;;;28.13;9.25;;;;;;;14.41;74.23;102249.81;5032241;28;20503;-73
2022/06/12 05:41:13;;;;;;;25.83;8.93;;;;;;;14.44;73.79;102248.22;5032269;28;20048;-73
2022/06/12 05:43:40;;;;;;;24.67;9.10;;;;;;;14.49;73.96;102252.72;5032162;28;20038;-72
2022/06/12 05:46:10;;;;;;;25.70;9.10;;;;;;;14.54;73.82;102248.47;5031439;28;20024;-73
2022/06/12 05:48:37;;;;;;;27.67;9.55;;;;;;;14.59;74.22;102260.88;5031855;28;20029;-73
2022/06/12 05:51:03;;;;;;;28.60;10.15;;;;;;;14.64;74.56;102253.19;5014210;28;20048;-74
2022/06/12 05:53:30;;;;;;;25.65;9.85;;;;;;;14.69;74.46;102256.84;5014308;28;20025;-73
2022/06/12 05:55:57;;;;;;;34.17;10.45;;;;;;;14.77;74.30;102259.66;5032074;28;20112;-73
2022/06/12 05:58:24;;;;;;;32.13;10.38;;;;;;;14.83;74.31;102262.50;5031908;28;20021;-73
2022/06/12 06:00:52;;;;;;;31.77;9.70;;;;;;;14.91;74.17;102260.09;4999466;28;20025;-74
2022/06/12 06:03:17;;;;;;;25.05;9.50;;;;;;;14.96;73.92;102258.47;5010484;28;20481;-73
2022/06/12 06:05:45;;;;;;;33.20;10.10;;;;;;;15.04;73.89;102262.19;5031926;28;20031;-74
2022/06/12 06:08:11;;;;;;;31.25;9.73;;;;;;;15.14;73.42;102260.72;5030185;28;20116;-74
2022/06/12 06:10:37;;;;;;;31.42;9.82;;;;;;;15.21;73.51;102260.03;5032086;28;20032;-74
2022/06/12 06:13:03;;;;;;;32.15;9.80;;;;;;;15.29;73.65;102262.88;5027276;28;20049;-74
2022/06/12 06:15:28;;;;;;;30.42;9.93;;;;;;;15.38;73.61;102265.75;5025227;28;20477;-74
2022/06/12 06:17:54;;;;;;;33.15;9.45;;;;;;;15.46;74.18;102277.34;5029907;28;20217;-74
2022/06/12 06:20:24;;;;;;;31.67;10.50;;;;;;;15.57;74.03;102271.47;5027118;28;20030;-74
2022/06/12 06:22:51;;;;;;;38.25;10.77;;;;;;;15.65;74.46;102268.19;5025736;28;20415;-74
2022/06/12 06:25:17;;;;;;;33.65;10.13;;;;;;;15.70;74.02;102272.69;5029707;28;20083;-75
2022/06/12 06:27:42;;;;;;;36.45;10.30;;;;;;;15.75;73.46;102268.44;5029880;28;20017;-74
2022/06/12 06:30:08;;;;;;;34.40;10.25;;;;;;;15.80;74.52;102267.75;5029788;28;20022;-75
2022/06/12 06:32:34;;;;;;;37.35;10.80;;;;;;;15.86;74.68;102269.63;5011600;28;20400;-75
2022/06/12 06:35:00;;;;;;;37.53;11.77;;;;;;;15.95;74.11;102276.88;5011026;28;20261;-74
2022/06/12 06:37:25;;;;;;;36.75;11.05;;;;;;;16.03;74.54;102277.03;5029274;28;20033;-75
2022/06/12 06:39:51;;;;;;;48.15;12.18;;;;;;;16.12;75.19;102274.63;5010422;28;20025;-75
2022/06/12 06:42:16;;;;;;;42.88;11.55;;;;;;;16.19;75.08;102279.16;5028139;28;20557;-75
2022/06/12 06:47:25;;;;;;;40.22;11.35;;;;;;;16.33;74.63;102283.00;5019777;28;20067;-73
2022/06/12 06:49:51;;;;;;;39.75;11.95;;;;;;;16.35;74.67;102283.03;5009457;28;20029;-75
2022/06/12 06:52:17;;;;;;;42.80;11.23;;;;;;;16.39;74.14;102278.75;5029341;28;20037;-75
2022/06/12 06:54:42;;;;;;;33.88;11.40;;;;;;;16.42;74.08;102287.59;5026858;28;20048;-74
2022/06/12 06:57:09;;;;;;;40.17;11.27;;;;;;;16.46;73.25;102288.56;5029171;28;20024;-74
2022/06/12 06:59:36;;;;;;;39.65;11.60;;;;;;;16.50;74.32;102286.03;5029049;28;20448;-74
2022/06/12 07:02:01;;;;;;;40.13;11.68;;;;;;;16.57;74.85;102284.44;5029147;28;20037;-74
2022/06/12 07:04:26;;;;;;;40.50;11.63;;;;;;;16.65;75.12;102281.94;5029005;28;20029;-74
2022/06/12 07:06:52;;;;;;;32.85;11.00;;;;;;;16.73;74.77;102279.47;5028739;28;20033;-76
2022/06/12 07:09:17;;;;;;;47.05;11.75;;;;;;;16.78;73.26;102283.97;5029082;28;20396;-75
2022/06/12 07:11:42;;;;;;;50.83;12.68;;;;;;;16.85;73.91;102285.88;5026864;28;20021;-75
2022/06/12 07:14:07;;;;;;;43.07;13.13;;;;;;;16.90;73.93;102288.69;4991869;28;1058466;-74
2022/06/12 07:16:34;;;;;;;38.70;11.82;;;;;;;16.98;73.70;102291.47;5029083;28;20084;-75
2022/06/12 07:19:00;;;;;;;50.88;12.82;;;;;;;17.00;73.06;102287.09;5026517;28;20026;-74
2022/06/12 07:21:25;;;;;;;43.20;11.90;;;;;;;17.00;73.17;102285.38;5028203;28;20769;-74
2022/06/12 07:23:51;;;;;;;40.50;11.50;;;;;;;17.03;73.47;102282.78;5026520;28;21063;-74
2022/06/12 07:26:30;;;;;;;38.38;11.88;;;;;;;17.06;72.98;102284.63;5028183;28;20120;-74
2022/06/12 07:28:56;;;;;;;35.88;11.23;;;;;;;17.13;73.38;102281.25;5026394;28;20026;-76
2022/06/12 07:31:22;;;;;;;40.33;11.57;;;;;;;17.13;72.28;102278.59;5029453;28;20071;-75
2022/06/12 07:33:48;;;;;;;38.67;12.70;;;;;;;17.17;72.74;102293.59;5011204;28;20484;-75
2022/06/12 07:36:15;;;;;;;40.25;11.80;;;;;;;17.17;73.26;102293.59;5029480;28;20037;-75
2022/06/12 07:38:41;;;;;;;37.63;11.63;;;;;;;17.21;73.74;102289.28;5029164;28;20045;-75
2022/06/12 07:41:10;;;;;;;44.03;12.25;;;;;;;17.26;72.93;102286.72;5028886;28;20029;-76
2022/06/12 07:43:37;;;;;;;38.60;11.80;;;;;;;17.35;74.60;102293.06;5029794;28;20056;-74
2022/06/12 07:46:06;;;;;;;44.17;12.75;;;;;;;17.37;73.31;102293.97;5028802;28;20037;-75
2022/06/12 07:48:31;;;;;;;34.25;11.50;;;;;;;17.40;73.00;102297.53;5029721;28;20020;-75
2022/06/12 07:50:58;;;;;;;35.20;12.13;;;;;;;17.44;73.85;102296.72;5028721;28;20022;-76
2022/06/12 07:53:25;;;;;;;41.10;12.48;;;;;;;17.46;72.92;102293.25;5021209;28;20512;-76
2022/06/12 07:55:52;;;;;;;36.92;11.80;;;;;;;17.54;72.47;102299.56;5025270;28;20497;-75
2022/06/12 07:58:19;;;;;;;33.42;11.50;;;;;;;17.59;72.69;102290.84;5011632;28;20366;-75
2022/06/12 08:00:44;;;;;;;44.30;12.48;;;;;;;17.63;71.60;102297.97;5029287;28;20061;-75
2022/06/12 08:03:10;;;;;;;35.50;12.02;;;;;;;17.70;73.10;102297.22;5028521;28;20048;-74
2022/06/12 08:05:36;;;;;;;39.00;11.88;;;;;;;17.73;71.62;102294.63;5029219;28;20026;-76
2022/06/12 08:08:02;;;;;;;37.72;11.52;;;;;;;17.82;72.29;102300.03;5029432;28;20033;-75
2022/06/12 08:10:27;;;;;;;36.08;10.48;;;;;;;17.82;70.67;102291.25;5029184;28;20013;-75
2022/06/12 08:12:55;;;;;;;42.08;11.63;;;;;;;17.85;73.20;102300.09;5022783;28;20528;-75
2022/06/12 08:15:24;;;;;;;35.10;11.00;;;;;;;17.87;70.46;102289.56;5028197;28;20120;-75
2022/06/12 08:17:49;;;;;;;;;;;;;;;17.92;71.20;102297.59;5014539;28;20018;-76
2022/06/12 08:20:24;;;;;;;36.85;11.27;;;;;;;17.90;70.37;102297.53;5026839;28;20330;-74
2022/06/12 08:23:05;;;;;;;35.20;10.75;;;;;;;17.90;70.77;102290.53;5030054;28;20029;-75
2022/06/12 08:25:35;;;;;;;37.13;11.52;;;;;;;17.92;71.66;102287.94;5029949;28;20116;-75
2022/06/12 08:28:01;;;;;;;33.67;10.82;;;;;;;17.94;69.31;102288.84;5029524;28;20492;-74
2022/06/12 08:30:28;;;;;;;40.97;12.23;;;;;;;17.96;69.86;102294.13;5024566;28;20048;-75
2022/06/12 08:32:54;;;;;;;39.53;12.48;;;;;;;17.98;69.81;102293.31;5029879;28;20025;-75
2022/06/12 08:35:27;;;;;;;38.92;12.90;;;;;;;18.02;70.85;102296.88;5032356;28;20030;-74
2022/06/12 08:37:54;;;;;;;32.03;11.88;;;;;;;18.01;69.93;102292.47;5013331;28;20029;-75
2022/06/12 08:40:27;;;;;;;29.88;11.85;;;;;;;18.06;71.65;102289.03;5031698;28;20033;-75
2022/06/12 08:43:04;;;;;;;37.75;12.15;;;;;;;18.09;70.30;102290.84;5032827;28;20026;-75
2022/06/12 08:45:36;;;;;;;38.05;11.95;;;;;;;18.13;69.96;102283.84;5032644;28;20032;-75
2022/06/12 08:48:09;;;;;;;39.60;13.30;;;;;;;18.18;70.78;102293.63;5031658;28;20534;-75
2022/06/12 08:50:48;;;;;;;37.83;12.88;;;;;;;18.18;69.88;102287.47;5032258;28;20025;-76
2022/06/12 08:53:22;;;;;;;38.38;12.25;;;;;;;18.20;68.55;102289.22;5031653;28;20025;-74
2022/06/12 08:56:10;;;;;;;33.80;11.05;;;;;;;18.22;70.04;102284.88;5014809;28;20028;-75
2022/06/12 08:59:14;;;;;;;43.80;12.95;;;;;;;18.25;68.81;102279.66;5032927;28;20016;-74
2022/06/12 09:01:42;;;;;;;37.08;12.70;;;;;;;18.28;68.82;102277.91;5033157;28;20032;-74
2022/06/12 09:04:14;;;;;;;33.85;13.00;;;;;;;18.32;69.70;102274.47;5033110;28;20117;-75
2022/06/12 09:06:47;;;;;;;36.30;13.05;;;;;;;18.39;69.16;102269.31;5033124;28;20040;-76
2022/06/12 09:09:30;;;;;;;35.38;12.82;;;;;;;18.49;68.94;102267.66;5033043;28;20576;-74
2022/06/12 09:12:07;;;;;;;29.23;11.50;;;;;;;18.52;67.06;102267.69;5032235;28;20025;-75
2022/06/12 09:14:56;;;;;;;27.95;10.07;;;;;;;18.60;67.22;102265.19;5032757;28;20056;-75
2022/06/12 09:17:48;;;;;;;25.80;10.40;;;;;;;18.71;67.58;102265.31;5032840;28;20032;-74
2022/06/12 09:20:31;;;;;;;33.00;11.27;;;;;;;18.81;68.06;102259.25;5032587;28;20022;-75
2022/06/12 09:23:08;;;;;;;29.63;9.38;;;;;;;18.88;67.41;102261.16;5032956;28;20022;-76
2022/06/12 09:25:40;;;;;;;35.75;12.15;;;;;;;18.92;67.07;102264.72;5032629;28;20526;-74
2022/06/12 09:28:11;;;;;;;30.60;12.10;;;;;;;18.98;65.26;102266.56;5032495;28;20079;-76
2022/06/12 09:30:43;;;;;;;30.90;10.50;;;;;;;19.04;65.02;102262.22;5006045;28;20034;-75
2022/06/12 09:33:30;;;;;;;28.50;9.88;;;;;;;19.13;63.09;102263.19;5032209;28;20021;-74
2022/06/12 09:36:08;;;;;;;21.65;8.70;;;;;;;19.16;63.09;102265.84;5014109;28;20519;-76
2022/06/12 09:39:03;;;;;;;24.02;9.45;;;;;;;19.19;62.88;102258.88;5031665;28;20025;-75
2022/06/12 09:41:44;;;;;;;27.33;9.52;;;;;;;19.28;64.77;102258.94;5031185;28;20104;-76
2022/06/12 09:44:26;;;;;;;24.40;9.35;;;;;;;19.34;61.95;102254.59;5031569;28;20102;-75
2022/06/12 09:47:09;;;;;;;30.35;10.55;;;;;;;19.39;63.47;102255.53;5031452;28;20025;-75
2022/06/12 09:49:53;;;;;;;25.83;8.55;;;;;;;19.48;62.90;102262.66;5029843;28;20037;-75
2022/06/12 09:52:34;;;;;;;31.73;9.75;;;;;;;19.47;60.00;102256.50;5031992;28;20029;-75
2022/06/12 09:55:03;;;;;;;29.52;8.05;;;;;;;19.48;62.63;102253.00;5031565;28;20025;-74
2022/06/12 09:57:51;;;;;;;33.40;9.10;;;;;;;19.55;64.41;102254.81;5031635;28;20374;-76
2022/06/12 10:00:42;;;;;;;28.00;8.02;;;;;;;19.59;65.24;102251.28;5030818;28;20026;-76
2022/06/12 10:03:19;;;;;;;25.35;8.07;;;;;;;19.62;63.58;102256.63;5023126;28;20064;-75
2022/06/12 10:05:54;;;;;;;33.63;9.32;;;;;;;19.65;62.64;102253.09;5031088;28;20053;-74
2022/06/12 10:08:31;;;;;;;36.42;10.57;;;;;;;19.66;59.85;102248.72;5030911;28;20021;-75
2022/06/12 10:11:05;;;;;;;29.55;10.43;;;;;;;19.76;63.05;102245.28;5006302;28;20052;-76
2022/06/12 10:14:18;;;;;;;31.55;10.00;;;;;;;19.83;63.26;102240.94;5026252;28;20502;-74
2022/06/12 10:16:53;;;;;;;30.67;10.15;;;;;;;19.85;62.36;102241.84;4967639;28;20045;-75
2022/06/12 10:19:35;;;;;;;27.40;8.73;;;;;;;19.84;61.39;102240.94;5024310;28;20060;-76
2022/06/12 10:22:07;;;;;;;27.58;9.90;;;;;;;19.89;63.37;102236.59;5026275;28;20025;-77
2022/06/12 10:24:32;;;;;;;26.52;9.05;;;;;;;19.96;62.40;102241.06;5025525;28;20037;-76
2022/06/12 10:27:01;;;;;;;24.02;8.63;;;;;;;19.98;60.81;102238.41;5027768;28;20029;-76
2022/06/12 10:29:27;;;;;;;;;;;;;;;20.04;63.55;102232.28;5003004;28;20130;-75
2022/06/12 10:32:01;;;;;;;21.65;7.25;;;;;;;20.03;61.93;102242.00;5023298;28;19921;-75
2022/06/12 10:34:30;;;;;;;23.52;7.72;;;;;;;20.02;63.41;102234.03;5025703;28;20021;-74
2022/06/12 10:37:09;;;;;;;53.22;27.55;;;;;;;20.09;64.30;102228.78;5024394;28;20509;-75
2022/06/12 10:39:35;;;;;;;26.98;9.00;;;;;;;20.03;57.72;102231.41;5020425;28;20226;-76
2022/06/12 10:42:07;;;;;;;24.80;8.43;;;;;;;19.99;59.18;102240.19;5030458;28;20683;-75
2022/06/12 10:44:37;;;;;;;23.83;8.48;;;;;;;20.06;59.27;102225.22;5019206;28;20029;-76
2022/06/12 10:47:18;;;;;;;26.67;8.63;;;;;;;20.15;60.98;102230.59;5022429;28;20033;-75
2022/06/12 10:49:44;;;;;;;23.48;7.90;;;;;;;20.26;60.10;102225.34;5022830;28;20025;-76
2022/06/12 10:52:20;;;;;;;22.80;7.60;;;;;;;20.44;62.98;102230.75;5022537;28;20124;-76
2022/06/12 10:54:47;;;;;;;23.45;7.28;;;;;;;20.55;60.68;102219.31;5027341;28;20801;-76
2022/06/12 10:57:37;;;;;;;24.50;7.95;;;;;;;20.69;61.57;102224.72;5027003;28;20040;-76
2022/06/12 11:00:04;;;;;;;24.92;7.03;;;;;;;20.80;62.66;102226.50;5011330;28;20112;-76
2022/06/12 11:03:06;;;;;;;24.73;7.78;;;;;;;20.83;61.83;102223.00;5029110;28;20083;-76
2022/06/12 11:05:51;;;;;;;19.30;6.65;;;;;;;20.89;62.01;102224.78;5025672;28;20025;-76
2022/06/12 11:08:41;;;;;;;19.70;6.60;;;;;;;20.82;59.46;102223.84;5029143;28;20072;-76
2022/06/12 11:11:17;;;;;;;24.20;6.70;;;;;;;20.74;59.58;102221.19;5028966;28;20104;-75
2022/06/12 11:13:48;;;;;;;23.05;7.75;;;;;;;20.69;60.35;102222.06;5029618;28;20057;-76
2022/06/12 11:16:32;;;;;;;19.50;6.53;;;;;;;20.65;60.42;102227.31;5018369;28;20040;-76
2022/06/12 11:19:16;;;;;;;17.63;6.88;;;;;;;20.69;60.91;102217.63;5027077;28;20018;-75
2022/06/12 11:22:14;;;;;;;26.23;7.35;;;;;;;20.76;60.27;102219.44;5024344;28;20531;-75
2022/06/12 11:24:58;;;;;;;24.70;7.18;;;;;;;20.94;63.91;102213.31;5024933;28;20014;-76
2022/06/12 11:27:40;;;;;;;21.95;7.63;;;;;;;21.05;61.31;102223.03;5028805;28;20051;-77
2022/06/12 11:30:21;;;;;;;20.52;6.72;;;;;;;21.10;59.64;102215.97;5010374;28;20420;-76
2022/06/12 11:33:08;;;;;;;22.13;7.45;;;;;;;21.08;58.36;102223.91;5029756;28;20393;-76
2022/06/12 11:35:55;;;;;;;22.55;7.28;;;;;;;21.00;57.64;102213.31;5028934;28;20021;-76
2022/06/12 11:38:30;;;;;;;20.27;7.05;;;;;;;21.06;59.07;102216.84;5028154;28;20030;-77
2022/06/12 11:41:27;;;;;;;19.40;6.35;;;;;;;21.21;61.11;102213.34;5027634;28;20022;-77
2022/06/12 11:44:08;;;;;;;17.98;6.97;;;;;;;21.23;55.16;102207.16;5021384;28;20400;-77
2022/06/12 11:47:01;;;;;;;19.92;5.93;;;;;;;21.20;55.88;102209.78;5023963;28;20108;-77
2022/06/12 11:50:05;;;;;;;17.55;5.70;;;;;;;21.22;56.89;102201.84;5024951;28;20025;-77
2022/06/12 11:52:51;;;;;;;16.95;5.93;;;;;;;21.25;56.25;102196.56;5006160;28;20088;-77